Cleveland, Virginia
Current Conditions -  °F | °C
As of 1:15 AM on Sunday 26 Oct 2014 (Local Time) from KVJI Reporting Station
Clear Clear  
Wind Chill: 54°   Ceiling: Unl
Heat Index: 54°   Visibility: 10mi
Dew Point: 49°   Wind: 6mph
Humidity: 83%   Direction: 270°W
Pressure: 29.99"   Gusts: NA
Location:  36.94°N, 82.15°W
Report Text: KVJI 260515Z AUTO 27005KT 10SM CLR 12/09 A2999 RMK AO2 T01200092
Loading
Personal Weather Stations






























Interactive Weather Map
Tropical Storm Tracking
New forecast layout! Learn more

10-Day Weather Forecast

Advertisements
Track Severe Weather on mobile